Time;durP1;ratioP1;P1;durP2;ratioP2;P2;SDS_P1;SDS_P2;PMS_P1;PMS_P2;Temp;Humidity;BMP_temperature;BMP_pressure;BME280_temperature;BME280_humidity;BME280_pressure;Samples;Min_cycle;Max_cycle;Signal;HPM_P1;HPM_P2
2024/02/21 00:01:22;;;;;;;76.95;73.05;;;;;;;;;;5064254;28;20111;-50
2024/02/21 00:03:48;;;;;;;79.18;74.88;;;;;;;;;;5067909;28;20116;-49
2024/02/21 00:06:13;;;;;;;78.88;74.72;;;;;;;;;;5066706;28;20132;-50
2024/02/21 00:08:38;;;;;;;70.90;67.00;;;;;;;;;;5064931;28;20028;-48
2024/02/21 00:11:04;;;;;;;67.75;64.28;;;;;;;;;;5067634;28;20607;-48
2024/02/21 00:13:29;;;;;;;67.55;63.92;;;;;;;;;;5069303;28;20032;-51
2024/02/21 00:15:55;;;;;;;63.17;59.88;;;;;;;;;;5067596;28;20127;-49
2024/02/21 00:18:21;;;;;;;63.92;60.63;;;;;;;;;;5066229;28;20045;-48
2024/02/21 00:20:46;;;;;;;63.90;60.60;;;;;;;;;;5065137;28;20271;-52
2024/02/21 00:23:11;;;;;;;65.60;62.20;;;;;;;;;;5067380;28;20624;-53
2024/02/21 00:25:37;;;;;;;64.28;60.65;;;;;;;;;;5064672;28;20441;-51
2024/02/21 00:28:03;;;;;;;67.38;63.08;;;;;;;;;;5063998;28;20552;-51
2024/02/21 00:30:28;;;;;;;63.45;60.25;;;;;;;;;;5066984;28;20480;-53
2024/02/21 00:32:53;;;;;;;74.22;70.35;;;;;;;;;;5063919;28;20040;-52
2024/02/21 00:35:19;;;;;;;67.93;64.32;;;;;;;;;;5063534;28;20028;-49
2024/02/21 00:37:44;;;;;;;70.80;67.00;;;;;;;;;;5063639;28;20424;-53
2024/02/21 00:40:10;;;;;;;63.75;60.47;;;;;;;;;;5067837;28;20029;-54
2024/02/21 00:42:36;;;;;;;61.72;58.35;;;;;;;;;;5066898;28;20621;-49
2024/02/21 00:45:01;;;;;;;68.38;64.82;;;;;;;;;;5069086;28;20027;-52
2024/02/21 00:47:26;;;;;;;67.32;63.80;;;;;;;;;;5066607;28;20144;-54
2024/02/21 00:49:52;;;;;;;69.80;66.15;;;;;;;;;;5067509;28;20033;-53
2024/02/21 00:52:17;;;;;;;67.95;64.53;;;;;;;;;;5067657;28;20126;-52
2024/02/21 00:54:43;;;;;;;66.70;63.17;;;;;;;;;;5069664;28;20131;-49
2024/02/21 00:57:08;;;;;;;63.03;59.83;;;;;;;;;;5067859;28;20037;-49
2024/02/21 00:59:34;;;;;;;64.40;61.15;;;;;;;;;;5068548;28;20051;-49
2024/02/21 01:01:59;;;;;;;59.97;56.95;;;;;;;;;;5066027;28;20179;-53
2024/02/21 01:04:24;;;;;;;58.90;55.83;;;;;;;;;;5068743;28;20048;-51
2024/02/21 01:06:50;;;;;;;62.97;59.45;;;;;;;;;;5072194;28;20563;-50
2024/02/21 01:09:15;;;;;;;60.85;57.70;;;;;;;;;;5067574;28;20032;-53
2024/02/21 01:11:41;;;;;;;63.47;60.10;;;;;;;;;;5069945;28;20047;-49
2024/02/21 01:14:06;;;;;;;59.13;55.97;;;;;;;;;;5072278;28;20038;-50
2024/02/21 01:16:31;;;;;;;64.18;60.33;;;;;;;;;;5066970;28;20032;-51
2024/02/21 01:18:57;;;;;;;58.45;54.78;;;;;;;;;;5066429;28;20041;-47
2024/02/21 01:21:22;;;;;;;62.83;59.60;;;;;;;;;;5066624;28;20060;-51
2024/02/21 01:23:48;;;;;;;60.25;57.13;;;;;;;;;;5070370;28;21152;-49
2024/02/21 01:26:15;;;;;;;60.95;57.80;;;;;;;;;;5065405;28;20045;-52
2024/02/21 01:28:41;;;;;;;58.35;55.20;;;;;;;;;;5068189;28;20662;-53
2024/02/21 01:31:07;;;;;;;59.20;56.15;;;;;;;;;;5066980;28;20113;-51
2024/02/21 01:33:34;;;;;;;61.03;57.92;;;;;;;;;;5067317;28;20458;-51
2024/02/21 01:36:03;;;;;;;57.63;54.63;;;;;;;;;;5069612;28;20040;-52
2024/02/21 01:38:29;;;;;;;67.40;64.00;;;;;;;;;;5066508;28;20077;-50
2024/02/21 01:40:56;;;;;;;63.17;59.97;;;;;;;;;;5068791;28;20051;-48
2024/02/21 01:43:21;;;;;;;64.80;61.50;;;;;;;;;;5068047;28;20085;-48
2024/02/21 01:45:50;;;;;;;59.17;56.15;;;;;;;;;;5067540;28;20025;-49
2024/02/21 01:48:17;;;;;;;63.00;59.63;;;;;;;;;;5067311;28;20111;-48
2024/02/21 01:50:44;;;;;;;66.07;62.67;;;;;;;;;;5067575;28;20036;-48
2024/02/21 01:53:10;;;;;;;68.75;65.13;;;;;;;;;;5066158;28;20036;-50
2024/02/21 01:55:35;;;;;;;56.92;53.85;;;;;;;;;;5063844;28;20032;-51
2024/02/21 01:58:02;;;;;;;63.90;60.70;;;;;;;;;;5068300;28;20043;-50
2024/02/21 02:00:27;;;;;;;66.03;62.45;;;;;;;;;;5064718;28;20030;-49
2024/02/21 02:02:54;;;;;;;64.68;61.38;;;;;;;;;;5067659;28;20461;-51
2024/02/21 02:05:21;;;;;;;63.15;59.92;;;;;;;;;;5062127;28;20036;-51
2024/02/21 02:07:46;;;;;;;60.80;57.70;;;;;;;;;;5067116;28;20033;-51
2024/02/21 02:10:12;;;;;;;63.45;60.25;;;;;;;;;;5067459;28;20138;-51
2024/02/21 02:12:37;;;;;;;57.85;54.95;;;;;;;;;;5064399;28;20477;-48
2024/02/21 02:15:06;;;;;;;56.88;53.88;;;;;;;;;;5067906;28;20037;-51
2024/02/21 02:17:32;;;;;;;60.10;56.80;;;;;;;;;;5063619;28;20110;-49
2024/02/21 02:19:57;;;;;;;57.03;54.08;;;;;;;;;;5065021;28;20032;-50
2024/02/21 02:22:28;;;;;;;55.05;52.17;;;;;;;;;;5064363;28;20487;-48
2024/02/21 02:24:54;;;;;;;66.90;63.15;;;;;;;;;;5069988;28;20051;-52
2024/02/21 02:27:19;;;;;;;59.90;56.80;;;;;;;;;;5064545;28;20463;-49
2024/02/21 02:29:44;;;;;;;57.30;54.35;;;;;;;;;;5064464;28;20305;-48
2024/02/21 02:32:10;;;;;;;55.00;52.13;;;;;;;;;;5064662;28;20040;-48
2024/02/21 02:34:35;;;;;;;50.83;48.13;;;;;;;;;;5063942;28;20516;-48
2024/02/21 02:37:00;;;;;;;47.15;44.45;;;;;;;;;;5066018;28;20033;-62
2024/02/21 02:39:26;;;;;;;53.10;50.38;;;;;;;;;;5063869;28;20037;-63
2024/02/21 02:41:51;;;;;;;48.70;46.15;;;;;;;;;;5066481;28;20037;-63
2024/02/21 02:44:16;;;;;;;46.78;44.15;;;;;;;;;;5067611;28;20028;-63
2024/02/21 02:46:42;;;;;;;48.72;46.20;;;;;;;;;;5062148;28;20035;-63
2024/02/21 02:49:07;;;;;;;46.70;44.30;;;;;;;;;;5064503;28;20032;-63
2024/02/21 02:51:33;;;;;;;48.70;46.15;;;;;;;;;;5065612;28;20443;-63
2024/02/21 02:53:58;;;;;;;51.67;48.92;;;;;;;;;;5065079;28;20089;-63
2024/02/21 02:56:23;;;;;;;52.25;49.50;;;;;;;;;;5062656;28;20098;-49
2024/02/21 02:58:49;;;;;;;51.80;49.13;;;;;;;;;;5063260;28;20033;-49
2024/02/21 03:01:14;;;;;;;51.63;48.90;;;;;;;;;;5068181;28;20032;-52
2024/02/21 03:03:40;;;;;;;53.72;50.72;;;;;;;;;;5060015;28;20045;-50
2024/02/21 03:06:05;;;;;;;49.35;46.70;;;;;;;;;;5064746;28;20409;-49
2024/02/21 03:08:32;;;;;;;49.85;46.17;;;;;;;;;;5066975;28;20058;-52
2024/02/21 03:10:59;;;;;;;47.47;44.90;;;;;;;;;;5050477;28;20132;-49
2024/02/21 03:13:25;;;;;;;45.08;42.55;;;;;;;;;;5062705;28;20028;-50
2024/02/21 03:15:50;;;;;;;45.53;42.63;;;;;;;;;;5064655;28;20457;-49
2024/02/21 03:18:15;;;;;;;43.25;41.03;;;;;;;;;;5066056;28;20040;-51
2024/02/21 03:20:40;;;;;;;47.17;44.58;;;;;;;;;;5063150;28;20035;-63
2024/02/21 03:23:06;;;;;;;47.55;45.03;;;;;;;;;;5066602;28;20036;-63
2024/02/21 03:25:31;;;;;;;42.45;40.17;;;;;;;;;;5067291;28;20029;-63
2024/02/21 03:27:57;;;;;;;43.17;40.72;;;;;;;;;;5063415;28;20086;-63
2024/02/21 03:30:22;;;;;;;41.17;39.00;;;;;;;;;;5065277;28;20044;-63
2024/02/21 03:32:47;;;;;;;40.90;38.63;;;;;;;;;;5065089;28;20028;-63
2024/02/21 03:35:13;;;;;;;46.53;44.03;;;;;;;;;;5061381;28;20037;-63
2024/02/21 03:37:38;;;;;;;43.78;41.35;;;;;;;;;;5064646;28;20024;-63
2024/02/21 03:40:07;;;;;;;47.30;44.85;;;;;;;;;;5066374;28;20043;-63
2024/02/21 03:42:32;;;;;;;47.90;45.42;;;;;;;;;;5065269;28;20094;-62
2024/02/21 03:44:58;;;;;;;47.70;45.22;;;;;;;;;;5065492;28;20040;-63
2024/02/21 03:47:23;;;;;;;50.33;45.97;;;;;;;;;;5066040;28;20032;-63
2024/02/21 03:49:49;;;;;;;48.95;45.58;;;;;;;;;;5064530;28;20451;-63
2024/02/21 03:52:14;;;;;;;50.63;47.92;;;;;;;;;;5067319;28;20093;-63
2024/02/21 03:54:40;;;;;;;47.00;44.35;;;;;;;;;;5065622;28;20442;-63
2024/02/21 03:57:06;;;;;;;45.80;43.35;;;;;;;;;;5063404;28;20055;-63
2024/02/21 03:59:31;;;;;;;54.85;51.90;;;;;;;;;;5064943;28;20092;-63
2024/02/21 04:01:57;;;;;;;56.17;53.28;;;;;;;;;;5065194;28;20040;-63
2024/02/21 04:04:22;;;;;;;54.38;51.47;;;;;;;;;;5063162;28;20028;-63
2024/02/21 04:06:51;;;;;;;57.33;54.10;;;;;;;;;;5066310;28;20029;-63
2024/02/21 04:09:16;;;;;;;56.90;53.95;;;;;;;;;;5065441;28;20029;-63
2024/02/21 04:11:42;;;;;;;58.05;54.97;;;;;;;;;;5068592;28;20606;-63
2024/02/21 04:14:07;;;;;;;58.72;55.63;;;;;;;;;;5064386;28;20802;-62
2024/02/21 04:16:34;;;;;;;62.35;58.08;;;;;;;;;;5071422;28;20055;-63
2024/02/21 04:18:59;;;;;;;62.63;59.40;;;;;;;;;;5066683;28;20038;-63
2024/02/21 04:21:25;;;;;;;60.67;57.55;;;;;;;;;;5070586;28;20032;-62
2024/02/21 04:23:50;;;;;;;63.47;59.85;;;;;;;;;;5071879;28;20398;-62
2024/02/21 04:26:15;;;;;;;60.20;57.17;;;;;;;;;;5068006;28;20453;-62
2024/02/21 04:28:41;;;;;;;60.13;56.97;;;;;;;;;;5069388;28;20047;-62
2024/02/21 04:31:06;;;;;;;58.83;54.88;;;;;;;;;;5067556;28;20033;-62
2024/02/21 04:33:32;;;;;;;60.47;57.42;;;;;;;;;;5067506;28;20024;-62
2024/02/21 04:35:58;;;;;;;59.85;56.60;;;;;;;;;;5071862;28;20512;-62
2024/02/21 04:38:23;;;;;;;57.40;54.40;;;;;;;;;;5066642;28;20033;-62
2024/02/21 04:40:49;;;;;;;57.90;54.95;;;;;;;;;;5068276;28;20684;-62
2024/02/21 04:43:14;;;;;;;54.50;51.67;;;;;;;;;;5067652;28;20501;-62
2024/02/21 04:45:39;;;;;;;54.10;51.38;;;;;;;;;;5068521;28;20032;-62
2024/02/21 04:48:05;;;;;;;55.60;52.63;;;;;;;;;;5062740;28;20043;-62
2024/02/21 04:50:30;;;;;;;56.28;53.33;;;;;;;;;;5067085;28;20052;-62
2024/02/21 04:52:55;;;;;;;53.78;50.88;;;;;;;;;;5067166;28;20047;-62
2024/02/21 04:55:21;;;;;;;56.80;53.88;;;;;;;;;;5068007;28;20115;-62
2024/02/21 04:57:46;;;;;;;54.95;52.13;;;;;;;;;;5066049;28;20020;-63
2024/02/21 05:00:12;;;;;;;55.95;52.95;;;;;;;;;;5066059;28;20025;-62
2024/02/21 05:02:37;;;;;;;53.80;50.53;;;;;;;;;;5065425;28;20036;-62
2024/02/21 05:05:03;;;;;;;59.08;56.03;;;;;;;;;;5067714;28;20032;-62
2024/02/21 05:07:28;;;;;;;57.28;53.95;;;;;;;;;;5065276;28;20425;-62
2024/02/21 05:09:54;;;;;;;55.95;53.00;;;;;;;;;;5065979;28;20041;-62
2024/02/21 05:12:20;;;;;;;56.67;53.70;;;;;;;;;;5065191;28;20107;-62
2024/02/21 05:14:46;;;;;;;56.72;53.83;;;;;;;;;;5067164;28;20366;-62
2024/02/21 05:17:12;;;;;;;62.13;58.03;;;;;;;;;;5064387;28;20518;-62
2024/02/21 05:19:37;;;;;;;56.55;51.80;;;;;;;;;;5069655;28;20036;-61
2024/02/21 05:22:03;;;;;;;56.40;53.03;;;;;;;;;;5067291;28;20049;-62
2024/02/21 05:24:29;;;;;;;59.55;56.38;;;;;;;;;;5068672;28;20398;-62
2024/02/21 05:26:55;;;;;;;55.40;52.53;;;;;;;;;;5062417;28;20083;-61
2024/02/21 05:29:20;;;;;;;57.58;54.00;;;;;;;;;;5065776;28;20067;-62
2024/02/21 05:31:51;;;;;;;53.47;50.55;;;;;;;;;;5070383;28;20044;-62
2024/02/21 05:34:17;;;;;;;;;;;;;;;;;;5065400;28;20032;-62
2024/02/21 05:36:42;;;;;;;46.85;44.42;;;;;;;;;;5073203;28;19916;-64
2024/02/21 05:39:07;;;;;;;51.03;48.38;;;;;;;;;;5068201;28;20035;-64
2024/02/21 05:41:33;;;;;;;52.35;49.70;;;;;;;;;;5074115;28;20047;-62
2024/02/21 05:43:58;;;;;;;56.03;52.03;;;;;;;;;;5066971;28;20056;-62
2024/02/21 05:46:24;;;;;;;56.53;53.60;;;;;;;;;;5063848;28;20064;-63
2024/02/21 05:48:49;;;;;;;58.42;55.20;;;;;;;;;;5063261;28;20260;-63
2024/02/21 05:51:15;;;;;;;53.88;51.03;;;;;;;;;;5068012;28;20048;-63
2024/02/21 05:53:40;;;;;;;51.90;48.67;;;;;;;;;;5064767;28;20047;-63
2024/02/21 05:56:15;;;;;;;53.03;49.20;;;;;;;;;;5061689;28;20082;-63
2024/02/21 05:58:40;;;;;;;51.47;48.45;;;;;;;;;;5062381;28;20070;-62
2024/02/21 06:01:07;;;;;;;45.60;43.25;;;;;;;;;;5063119;28;20032;-62
2024/02/21 06:03:33;;;;;;;46.38;43.97;;;;;;;;;;5061163;28;20810;-61
2024/02/21 06:05:59;;;;;;;45.53;43.05;;;;;;;;;;5062481;28;20043;-62
2024/02/21 06:08:25;;;;;;;45.10;42.53;;;;;;;;;;5062764;28;20627;-62
2024/02/21 06:10:54;;;;;;;45.35;42.92;;;;;;;;;;5067555;28;20029;-62
2024/02/21 06:13:21;;;;;;;42.47;40.10;;;;;;;;;;5061536;28;20032;-62
2024/02/21 06:15:46;;;;;;;42.28;40.05;;;;;;;;;;5061699;28;20040;-62
2024/02/21 06:18:12;;;;;;;44.53;41.85;;;;;;;;;;5062614;28;20055;-62
2024/02/21 06:20:40;;;;;;;43.72;41.35;;;;;;;;;;5063376;28;20029;-62
2024/02/21 06:23:06;;;;;;;41.58;39.42;;;;;;;;;;5062358;28;20029;-62
2024/02/21 06:25:32;;;;;;;44.05;41.58;;;;;;;;;;5062148;28;20086;-62
2024/02/21 06:27:57;;;;;;;46.08;43.05;;;;;;;;;;5064185;28;20402;-62
2024/02/21 06:30:23;;;;;;;44.20;41.72;;;;;;;;;;5059071;28;20044;-62
2024/02/21 06:32:48;;;;;;;44.78;42.00;;;;;;;;;;5062626;28;20060;-50
2024/02/21 06:35:13;;;;;;;42.78;40.47;;;;;;;;;;5060993;28;20024;-63
2024/02/21 06:37:39;;;;;;;39.20;37.17;;;;;;;;;;5063395;28;20036;-49
2024/02/21 06:40:05;;;;;;;40.88;38.63;;;;;;;;;;5060686;28;20111;-62
2024/02/21 06:42:30;;;;;;;39.67;37.63;;;;;;;;;;5058016;28;20071;-62
2024/02/21 06:44:56;;;;;;;39.33;37.13;;;;;;;;;;5059336;28;20093;-62
2024/02/21 06:47:21;;;;;;;42.78;40.38;;;;;;;;;;5064392;28;20029;-62
2024/02/21 06:49:51;;;;;;;42.67;40.45;;;;;;;;;;5062868;28;20111;-48
2024/02/21 06:52:20;;;;;;;40.83;38.33;;;;;;;;;;5065512;28;20086;-61
2024/02/21 06:54:47;;;;;;;41.30;38.97;;;;;;;;;;5059194;28;20039;-46
2024/02/21 06:57:13;;;;;;;42.55;40.33;;;;;;;;;;5057006;28;20471;-51
2024/02/21 06:59:38;;;;;;;42.20;40.00;;;;;;;;;;5065152;28;20123;-49
2024/02/21 07:02:04;;;;;;;38.28;36.10;;;;;;;;;;5055817;28;20127;-48
2024/02/21 07:04:29;;;;;;;40.60;38.50;;;;;;;;;;5064692;28;20044;-48
2024/02/21 07:06:54;;;;;;;41.40;39.25;;;;;;;;;;5062917;28;20067;-51
2024/02/21 07:09:20;;;;;;;41.30;38.80;;;;;;;;;;5065136;28;20108;-61
2024/02/21 07:11:45;;;;;;;40.05;37.67;;;;;;;;;;5062885;28;20155;-62
2024/02/21 07:14:10;;;;;;;39.67;37.58;;;;;;;;;;5061769;28;20031;-51
2024/02/21 07:16:36;;;;;;;37.55;35.58;;;;;;;;;;5064705;28;20624;-47
2024/02/21 07:19:02;;;;;;;39.38;37.30;;;;;;;;;;5059545;28;20430;-51
2024/02/21 07:21:28;;;;;;;38.15;35.83;;;;;;;;;;5058855;28;20036;-48
2024/02/21 07:23:53;;;;;;;36.30;34.40;;;;;;;;;;5059430;28;20577;-50
2024/02/21 07:26:18;;;;;;;35.42;33.55;;;;;;;;;;5059216;28;20035;-62
2024/02/21 07:28:43;;;;;;;36.30;34.33;;;;;;;;;;5062967;28;20033;-49
2024/02/21 07:31:09;;;;;;;34.00;32.20;;;;;;;;;;5056502;28;20037;-47
2024/02/21 07:33:35;;;;;;;32.10;30.40;;;;;;;;;;5057060;28;20036;-51
2024/02/21 07:36:01;;;;;;;32.60;30.75;;;;;;;;;;5057543;28;20040;-50
2024/02/21 07:38:26;;;;;;;30.77;29.10;;;;;;;;;;5058049;28;20497;-49
2024/02/21 07:40:51;;;;;;;29.95;28.35;;;;;;;;;;5058272;28;20102;-50
2024/02/21 07:43:17;;;;;;;30.10;28.50;;;;;;;;;;5059216;28;20029;-51
2024/02/21 07:45:42;;;;;;;30.77;28.98;;;;;;;;;;5059686;28;20051;-61
2024/02/21 07:48:07;;;;;;;29.73;28.02;;;;;;;;;;5057366;28;20048;-51
2024/02/21 07:50:33;;;;;;;31.00;29.10;;;;;;;;;;5054406;28;20117;-50
2024/02/21 07:52:58;;;;;;;30.17;28.48;;;;;;;;;;5058669;28;20048;-51
2024/02/21 07:55:24;;;;;;;29.20;27.58;;;;;;;;;;5057471;28;20071;-61
2024/02/21 07:57:49;;;;;;;32.35;29.90;;;;;;;;;;5060919;28;20021;-51
2024/02/21 08:00:19;;;;;;;31.35;29.40;;;;;;;;;;5060367;28;20028;-61
2024/02/21 08:02:50;;;;;;;25.48;24.08;;;;;;;;;;5061261;28;20027;-47
2024/02/21 08:05:16;;;;;;;;;;;;;;;;;;5058964;28;20040;-49
2024/02/21 08:07:41;;;;;;;24.67;23.38;;;;;;;;;;5059813;28;20299;-48
2024/02/21 08:10:08;;;;;;;26.48;24.75;;;;;;;;;;5058841;28;20032;-62
2024/02/21 08:12:33;;;;;;;24.55;23.15;;;;;;;;;;5059001;28;20024;-62
2024/02/21 08:14:59;;;;;;;23.73;22.33;;;;;;;;;;5059585;28;20093;-62
2024/02/21 08:17:24;;;;;;;21.92;20.63;;;;;;;;;;5057573;28;20046;-62
2024/02/21 08:19:49;;;;;;;24.77;23.23;;;;;;;;;;5060699;28;20040;-62
2024/02/21 08:22:15;;;;;;;25.08;23.58;;;;;;;;;;5058623;28;20036;-62
2024/02/21 08:24:41;;;;;;;24.48;23.08;;;;;;;;;;5061130;28;20044;-62
2024/02/21 08:27:07;;;;;;;20.27;19.17;;;;;;;;;;5059724;28;20107;-48
2024/02/21 08:29:32;;;;;;;22.65;21.20;;;;;;;;;;5063997;28;20040;-62
2024/02/21 08:31:58;;;;;;;21.52;20.33;;;;;;;;;;5057504;28;20071;-47
2024/02/21 08:34:23;;;;;;;24.13;22.65;;;;;;;;;;5058963;28;20044;-50
2024/02/21 08:36:48;;;;;;;24.05;22.65;;;;;;;;;;5055823;28;20359;-50
2024/02/21 08:39:16;;;;;;;21.67;20.15;;;;;;;;;;5058593;28;20374;-48
2024/02/21 08:41:42;;;;;;;23.90;22.60;;;;;;;;;;5059181;28;20049;-50
2024/02/21 08:44:08;;;;;;;25.85;24.23;;;;;;;;;;5057284;28;20054;-52
2024/02/21 08:46:33;;;;;;;26.60;24.73;;;;;;;;;;5057982;28;20122;-61
2024/02/21 08:48:59;;;;;;;21.55;20.35;;;;;;;;;;5055505;28;20033;-49
2024/02/21 08:51:24;;;;;;;28.45;26.95;;;;;;;;;;5055826;28;20033;-62
2024/02/21 08:53:49;;;;;;;33.97;32.17;;;;;;;;;;5057034;28;20025;-62
2024/02/21 08:56:16;;;;;;;29.42;27.73;;;;;;;;;;5059134;28;20478;-62
2024/02/21 08:58:41;;;;;;;29.73;28.10;;;;;;;;;;5059192;28;20037;-52
2024/02/21 09:01:10;;;;;;;41.15;39.05;;;;;;;;;;5056458;28;20099;-46
2024/02/21 09:03:39;;;;;;;61.72;58.53;;;;;;;;;;5061047;28;20366;-47
2024/02/21 09:06:05;;;;;;;40.78;38.65;;;;;;;;;;5060729;28;20025;-48
2024/02/21 09:08:30;;;;;;;64.90;61.40;;;;;;;;;;5061602;28;20033;-48
2024/02/21 09:10:56;;;;;;;54.50;51.75;;;;;;;;;;5059747;28;20419;-48
2024/02/21 09:13:22;;;;;;;55.60;52.75;;;;;;;;;;5065115;28;20032;-62
2024/02/21 09:15:48;;;;;;;48.47;45.83;;;;;;;;;;5062148;28;20518;-63
2024/02/21 09:18:14;;;;;;;81.05;76.68;;;;;;;;;;5060852;28;20056;-62
2024/02/21 09:20:39;;;;;;;79.40;75.05;;;;;;;;;;5059288;28;20068;-49
2024/02/21 09:23:04;;;;;;;84.57;79.93;;;;;;;;;;5063249;28;20352;-63
2024/02/21 09:25:31;;;;;;;82.95;78.82;;;;;;;;;;5060236;28;20189;-63
2024/02/21 09:27:58;;;;;;;80.00;76.00;;;;;;;;;;5060325;28;20041;-64
2024/02/21 09:30:24;;;;;;;82.78;78.57;;;;;;;;;;5062046;28;20301;-50
2024/02/21 09:32:49;;;;;;;80.53;76.13;;;;;;;;;;5059670;28;20036;-63
2024/02/21 09:35:15;;;;;;;82.00;77.90;;;;;;;;;;5065000;28;20043;-63
2024/02/21 09:37:40;;;;;;;86.97;82.68;;;;;;;;;;5059709;28;20470;-49
2024/02/21 09:40:06;;;;;;;83.72;79.57;;;;;;;;;;5061755;28;20032;-63
2024/02/21 09:42:37;;;;;;;86.28;81.93;;;;;;;;;;5061698;28;20037;-49
2024/02/21 09:45:06;;;;;;;84.68;80.32;;;;;;;;;;5062927;28;20032;-63
2024/02/21 09:47:56;;;;;;;79.65;75.68;;;;;;;;;;5059674;28;20061;-49
2024/02/21 09:50:22;;;;;;;81.70;77.60;;;;;;;;;;5062492;28;20037;-62
2024/02/21 09:52:49;;;;;;;77.65;73.78;;;;;;;;;;5060649;28;20024;-50
2024/02/21 09:55:15;;;;;;;80.88;76.88;;;;;;;;;;5060835;28;20067;-57
2024/02/21 09:57:43;;;;;;;83.10;78.93;;;;;;;;;;5059761;28;20028;-61
2024/02/21 10:00:09;;;;;;;80.55;76.53;;;;;;;;;;5061381;28;20040;-50
2024/02/21 10:02:35;;;;;;;88.05;83.68;;;;;;;;;;5059260;28;20357;-52
2024/02/21 10:05:00;;;;;;;90.97;85.47;;;;;;;;;;5057817;28;20068;-51
2024/02/21 10:07:26;;;;;;;87.13;82.63;;;;;;;;;;5060084;28;20037;-61
2024/02/21 10:10:02;;;;;;;79.05;75.15;;;;;;;;;;5060433;28;20090;-61
2024/02/21 10:12:27;;;;;;;66.88;63.47;;;;;;;;;;5057541;28;20039;-62
2024/02/21 10:15:03;;;;;;;74.47;70.57;;;;;;;;;;5059802;28;20545;-48
2024/02/21 10:17:28;;;;;;;74.82;71.03;;;;;;;;;;5059008;28;20299;-49
2024/02/21 10:19:54;;;;;;;72.28;68.43;;;;;;;;;;5059558;28;20101;-52
2024/02/21 10:22:20;;;;;;;63.97;60.67;;;;;;;;;;5062899;28;20043;-51
2024/02/21 10:24:46;;;;;;;73.57;69.60;;;;;;;;;;5058622;28;20035;-48
2024/02/21 10:27:11;;;;;;;62.70;59.47;;;;;;;;;;5058686;28;20370;-62
2024/02/21 10:29:38;;;;;;;58.70;55.47;;;;;;;;;;5059625;28;20032;-51
2024/02/21 10:32:11;;;;;;;53.15;50.45;;;;;;;;;;5058353;28;20041;-53
2024/02/21 10:34:38;;;;;;;40.40;38.22;;;;;;;;;;5060595;28;20117;-51
2024/02/21 10:37:10;;;;;;;47.00;44.60;;;;;;;;;;5057441;28;20354;-53
2024/02/21 10:39:40;;;;;;;48.83;46.33;;;;;;;;;;5058547;28;20028;-63
2024/02/21 10:42:07;;;;;;;50.63;47.53;;;;;;;;;;5057297;28;20036;-63
2024/02/21 10:44:36;;;;;;;48.15;45.65;;;;;;;;;;5056569;28;20051;-52
2024/02/21 10:47:07;;;;;;;31.73;30.02;;;;;;;;;;5054036;28;21598;-51
2024/02/21 10:49:39;;;;;;;38.75;36.65;;;;;;;;;;5058264;28;20044;-63
2024/02/21 10:52:24;;;;;;;37.58;35.60;;;;;;;;;;5056630;28;20044;-63
2024/02/21 10:55:03;;;;;;;25.83;24.42;;;;;;;;;;5057301;28;20044;-63
2024/02/21 10:57:31;;;;;;;30.42;28.83;;;;;;;;;;5061306;28;20044;-52
2024/02/21 10:59:58;;;;;;;35.08;33.28;;;;;;;;;;5059017;28;20065;-63
2024/02/21 11:02:25;;;;;;;25.33;23.98;;;;;;;;;;5057329;28;20041;-49
2024/02/21 11:04:53;;;;;;;24.45;23.15;;;;;;;;;;5059853;28;20105;-53
2024/02/21 11:07:19;;;;;;;30.58;28.92;;;;;;;;;;5063274;28;20036;-63
2024/02/21 11:09:55;;;;;;;25.55;24.02;;;;;;;;;;5066771;28;20238;-63
2024/02/21 11:12:21;;;;;;;25.20;23.52;;;;;;;;;;5058423;28;20355;-63
2024/02/21 11:14:47;;;;;;;31.98;30.23;;;;;;;;;;5065431;28;20035;-61
2024/02/21 11:17:22;;;;;;;26.98;25.52;;;;;;;;;;5066044;28;20292;-53
2024/02/21 11:19:47;;;;;;;24.45;22.48;;;;;;;;;;5058592;28;20465;-51
2024/02/21 11:22:17;;;;;;;24.52;23.13;;;;;;;;;;5057613;28;20072;-47
2024/02/21 11:24:43;;;;;;;22.98;21.67;;;;;;;;;;5057757;28;20397;-62
2024/02/21 11:27:21;;;;;;;20.50;19.30;;;;;;;;;;5062616;28;20028;-50
2024/02/21 11:29:50;;;;;;;21.75;20.55;;;;;;;;;;5061056;28;20037;-51
2024/02/21 11:32:18;;;;;;;23.92;22.63;;;;;;;;;;5060876;28;20391;-61
2024/02/21 11:35:04;;;;;;;19.92;18.83;;;;;;;;;;5059073;28;20047;-61
2024/02/21 11:37:34;;;;;;;22.75;20.92;;;;;;;;;;5060372;28;20032;-61
2024/02/21 11:40:00;;;;;;;20.83;19.70;;;;;;;;;;5057427;28;20123;-61
2024/02/21 11:42:30;;;;;;;23.17;21.83;;;;;;;;;;5060488;28;20516;-61
2024/02/21 11:44:57;;;;;;;23.45;22.05;;;;;;;;;;5059844;28;20075;-61
2024/02/21 11:47:23;;;;;;;22.17;20.50;;;;;;;;;;5059325;28;20112;-61
2024/02/21 11:49:53;;;;;;;21.98;20.77;;;;;;;;;;5055621;28;20035;-52
2024/02/21 11:52:22;;;;;;;19.65;18.55;;;;;;;;;;5061995;28;20064;-62
2024/02/21 11:54:48;;;;;;;21.35;20.15;;;;;;;;;;5058962;28;20036;-61
2024/02/21 11:57:13;;;;;;;22.48;21.27;;;;;;;;;;5059429;28;20032;-61
2024/02/21 11:59:40;;;;;;;21.10;19.92;;;;;;;;;;5056392;28;20040;-51
2024/02/21 12:02:05;;;;;;;22.25;21.05;;;;;;;;;;5057761;28;20527;-51
2024/02/21 12:04:30;;;;;;;22.92;21.63;;;;;;;;;;5058856;28;20024;-52
2024/02/21 12:06:58;;;;;;;23.48;22.08;;;;;;;;;;5057358;28;20037;-51
2024/02/21 12:09:24;;;;;;;23.00;21.63;;;;;;;;;;5059872;28;20414;-61
2024/02/21 12:12:00;;;;;;;22.27;20.98;;;;;;;;;;5055558;28;20469;-61
2024/02/21 12:14:29;;;;;;;23.92;22.50;;;;;;;;;;5055821;28;20458;-62
2024/02/21 12:16:55;;;;;;;27.23;25.48;;;;;;;;;;5059944;28;20339;-49
2024/02/21 12:19:20;;;;;;;23.88;22.58;;;;;;;;;;5056168;28;20051;-51
2024/02/21 12:21:49;;;;;;;21.40;20.25;;;;;;;;;;5056633;28;20422;-50
2024/02/21 12:24:16;;;;;;;23.27;21.90;;;;;;;;;;5063325;28;20028;-62
2024/02/21 12:26:42;;;;;;;22.88;21.45;;;;;;;;;;5054675;28;20043;-62
2024/02/21 12:29:11;;;;;;;22.75;21.45;;;;;;;;;;5058171;28;20382;-52
2024/02/21 12:31:40;;;;;;;33.08;31.35;;;;;;;;;;5054512;28;20040;-51
2024/02/21 12:34:06;;;;;;;33.05;31.30;;;;;;;;;;5067344;28;20519;-63
2024/02/21 12:36:32;;;;;;;32.05;30.30;;;;;;;;;;5063966;28;20033;-63
2024/02/21 12:38:58;;;;;;;33.88;32.03;;;;;;;;;;5064242;28;20426;-63
2024/02/21 12:41:25;;;;;;;32.33;30.63;;;;;;;;;;5061371;28;20073;-63
2024/02/21 12:43:51;;;;;;;40.58;38.47;;;;;;;;;;5062851;28;20390;-63
2024/02/21 12:46:16;;;;;;;36.17;34.28;;;;;;;;;;5060394;28;20435;-63
2024/02/21 12:48:41;;;;;;;38.67;36.67;;;;;;;;;;5059215;28;20426;-62
2024/02/21 12:51:07;;;;;;;41.70;39.53;;;;;;;;;;5061624;28;20533;-62
2024/02/21 12:53:32;;;;;;;37.15;35.25;;;;;;;;;;5062080;28;20028;-63
2024/02/21 12:55:58;;;;;;;34.95;33.13;;;;;;;;;;5062312;28;20094;-62
2024/02/21 12:58:23;;;;;;;47.92;44.65;;;;;;;;;;5061941;28;20063;-63
2024/02/21 13:00:48;;;;;;;43.13;40.83;;;;;;;;;;5061139;28;20483;-62
2024/02/21 13:03:14;;;;;;;40.28;38.13;;;;;;;;;;5063339;28;20047;-62
2024/02/21 13:05:39;;;;;;;45.63;43.33;;;;;;;;;;5060426;28;20032;-62
2024/02/21 13:08:06;;;;;;;47.92;45.42;;;;;;;;;;5061368;28;20081;-62
2024/02/21 13:10:34;;;;;;;46.63;44.22;;;;;;;;;;5061641;28;20063;-62
2024/02/21 13:12:59;;;;;;;45.42;43.13;;;;;;;;;;5061208;28;20366;-62
2024/02/21 13:15:25;;;;;;;43.03;40.28;;;;;;;;;;5058462;28;20524;-62
2024/02/21 13:17:50;;;;;;;47.13;44.72;;;;;;;;;;5061227;28;20470;-63
2024/02/21 13:20:15;;;;;;;52.78;50.10;;;;;;;;;;5059303;28;20462;-62
2024/02/21 13:22:41;;;;;;;47.20;44.60;;;;;;;;;;5062860;28;20032;-63
2024/02/21 13:25:07;;;;;;;44.10;41.38;;;;;;;;;;5059082;28;20033;-63
2024/02/21 13:27:33;;;;;;;45.45;42.90;;;;;;;;;;5058910;28;20037;-62
2024/02/21 13:30:00;;;;;;;47.70;45.28;;;;;;;;;;5059895;28;20436;-63
2024/02/21 13:32:25;;;;;;;40.33;38.25;;;;;;;;;;5060515;28;20123;-63
2024/02/21 13:34:52;;;;;;;43.03;40.67;;;;;;;;;;5064363;28;20040;-63
2024/02/21 13:37:18;;;;;;;45.10;42.80;;;;;;;;;;5059502;28;20036;-63
2024/02/21 13:39:43;;;;;;;45.80;43.03;;;;;;;;;;5057365;28;20540;-62
2024/02/21 13:42:08;;;;;;;43.63;41.33;;;;;;;;;;5055369;28;20064;-63
2024/02/21 13:44:34;;;;;;;45.55;43.08;;;;;;;;;;5057448;28;20343;-63
2024/02/21 13:47:00;;;;;;;46.05;43.65;;;;;;;;;;5057810;28;20032;-63
2024/02/21 13:49:25;;;;;;;44.65;42.25;;;;;;;;;;5063739;28;20036;-63
2024/02/21 13:51:50;;;;;;;42.25;40.05;;;;;;;;;;5056633;28;20059;-63
2024/02/21 13:54:19;;;;;;;41.17;39.05;;;;;;;;;;5060872;28;20028;-62
2024/02/21 13:56:45;;;;;;;48.45;45.95;;;;;;;;;;5058724;28;20438;-62
2024/02/21 13:59:11;;;;;;;46.47;44.00;;;;;;;;;;5057995;28;20056;-62
2024/02/21 14:01:36;;;;;;;48.35;45.85;;;;;;;;;;5061587;28;20086;-62
2024/02/21 14:04:02;;;;;;;49.92;47.40;;;;;;;;;;5064830;28;20039;-63
2024/02/21 14:06:27;;;;;;;45.70;43.33;;;;;;;;;;5063631;28;20102;-63
2024/02/21 14:08:53;;;;;;;46.58;44.08;;;;;;;;;;5059682;28;20048;-63
2024/02/21 14:11:18;;;;;;;45.22;42.90;;;;;;;;;;5057448;28;20119;-62
2024/02/21 14:13:44;;;;;;;47.22;44.72;;;;;;;;;;5059134;28;20052;-63